Aviation Digital Data Service (ADDS)

Output produced by METARs form (0423 UTC 26 June 2019)
found at http://www.aviationweather.gov/metar/data/
 
Forecast for: DTTA (TUNIS/CARTHAGE , TN)
Text: TAF DTTA 252300Z 2600/2624 VRB02KT CAVOK
Forecast period: 0000 to 0800 UTC 26 June 2019
Forecast type: FROM: standard forecast or significant change
Winds: variable direction winds at 2 MPH (2 knots; 1.0 m/s)
Visibility: 6 or more miles 10+ km)
Ceiling: unknown
Clouds: missing
Weather: NSW  (no significant weather)
Text: PROB30
Forecast period: 0500 to 0700 UTC 26 June 2019
Forecast type: TEMPORARY: The following changes expected for less than half the time period
Visibility: 2.49 miles (4.01 km)
Ceiling: at least 12,000 feet AGL
Clouds: few clouds at 1400 feet AGL
Weather: BR  (mist)
Text: TEMPO 2605/2607 4000 BR FEW014
Forecast period: 0800 UTC 26 June 2019 to 0000 UTC 27 June 2019
Forecast type: BECOMING: Conditions expected to become as follows by 1000 UTC 26 June 2019
Winds: from the NE (40 degrees) at 14 MPH (12 knots; 6.2 m/s)
Visibility: 6 or more miles 10+ km)
Ceiling: unknown
Clouds: missing
Weather: NSW  (no significant weather)